createdAt,value
2018-07-26T00:01:33.800Z,10.93
2018-07-26T00:04:02.061Z,11.50
2018-07-26T00:06:30.338Z,11.57
2018-07-26T00:08:58.612Z,11.63
2018-07-26T00:11:26.888Z,11.13
2018-07-26T00:13:55.165Z,11.07
2018-07-26T00:16:23.450Z,11.83
2018-07-26T00:18:51.764Z,11.27
2018-07-26T00:21:20.175Z,13.03
2018-07-26T00:23:48.400Z,11.00
2018-07-26T00:26:16.657Z,11.50
2018-07-26T00:28:44.928Z,10.90
2018-07-26T00:31:13.181Z,11.70
2018-07-26T00:33:41.452Z,12.70
2018-07-26T00:36:09.684Z,11.67
2018-07-26T00:38:37.955Z,12.10
2018-07-26T00:41:06.419Z,11.60
2018-07-26T00:43:34.676Z,12.37
2018-07-26T00:46:02.905Z,11.67
2018-07-26T00:48:31.141Z,11.53
2018-07-26T00:50:59.443Z,11.60
2018-07-26T00:53:27.696Z,12.10
2018-07-26T00:55:55.994Z,11.53
2018-07-26T00:58:24.224Z,11.30
2018-07-26T01:00:52.454Z,11.90
2018-07-26T01:03:20.734Z,12.00
2018-07-26T01:05:48.993Z,11.93
2018-07-26T01:08:17.239Z,13.03
2018-07-26T01:10:45.505Z,11.83
2018-07-26T01:13:13.772Z,13.00
2018-07-26T01:15:42.047Z,13.87
2018-07-26T01:18:10.252Z,13.67
2018-07-26T01:20:38.533Z,12.13
2018-07-26T01:23:06.808Z,14.30
2018-07-26T01:25:35.084Z,12.80
2018-07-26T01:28:03.385Z,13.63
2018-07-26T01:30:31.640Z,12.70
2018-07-26T01:32:59.896Z,12.53
2018-07-26T01:35:28.140Z,12.93
2018-07-26T01:37:56.364Z,12.70
2018-07-26T01:40:24.644Z,12.90
2018-07-26T01:44:06.626Z,14.77
2018-07-26T01:46:34.876Z,13.13
2018-07-26T01:49:03.113Z,14.23
2018-07-26T01:51:31.079Z,13.63
2018-07-26T01:53:59.325Z,13.97
2018-07-26T01:56:27.620Z,13.40
2018-07-26T01:58:55.913Z,12.00
2018-07-26T02:01:24.163Z,12.43
2018-07-26T02:03:52.452Z,13.17
2018-07-26T02:06:20.731Z,12.93
2018-07-26T02:08:48.981Z,12.93
2018-07-26T02:11:17.248Z,13.20
2018-07-26T02:13:45.481Z,13.37
2018-07-26T02:16:13.732Z,12.90
2018-07-26T02:18:42.025Z,13.43
2018-07-26T02:21:10.271Z,13.90
2018-07-26T02:23:38.562Z,14.63
2018-07-26T02:26:06.930Z,14.23
2018-07-26T02:28:35.163Z,13.60
2018-07-26T02:31:03.440Z,13.50
2018-07-26T02:33:31.711Z,14.47
2018-07-26T02:36:00.025Z,14.83
2018-07-26T02:38:28.254Z,13.03
2018-07-26T02:40:56.503Z,15.30
2018-07-26T02:43:24.777Z,14.30
2018-07-26T02:45:53.054Z,14.40
2018-07-26T02:48:21.324Z,13.60
2018-07-26T02:50:49.605Z,14.43
2018-07-26T02:53:17.861Z,13.93
2018-07-26T02:55:46.145Z,13.43
2018-07-26T02:58:14.404Z,14.63
2018-07-26T03:00:42.697Z,15.37
2018-07-26T03:03:10.939Z,13.27
2018-07-26T03:05:39.161Z,15.47
2018-07-26T03:08:07.425Z,14.53
2018-07-26T03:10:35.693Z,15.07
2018-07-26T03:13:03.970Z,14.90
2018-07-26T03:15:32.417Z,14.13
2018-07-26T03:18:00.653Z,15.73
2018-07-26T03:20:28.908Z,15.87
2018-07-26T03:22:57.165Z,15.63
2018-07-26T03:25:25.453Z,16.00
2018-07-26T03:27:54.060Z,15.63
2018-07-26T03:30:22.302Z,18.33
2018-07-26T03:32:50.525Z,14.43
2018-07-26T03:35:18.805Z,15.53
2018-07-26T03:37:47.040Z,15.47
2018-07-26T03:40:15.341Z,14.57
2018-07-26T03:42:43.556Z,15.03
2018-07-26T03:45:11.893Z,14.37
2018-07-26T03:47:40.169Z,15.20
2018-07-26T03:50:08.444Z,16.30
2018-07-26T03:52:36.795Z,16.17
2018-07-26T03:55:05.127Z,15.03
2018-07-26T03:57:33.376Z,15.57
2018-07-26T04:00:01.656Z,14.77
2018-07-26T04:02:29.663Z,15.33
2018-07-26T04:04:58.120Z,14.50
2018-07-26T04:07:26.417Z,15.40
2018-07-26T04:09:54.681Z,15.67
2018-07-26T04:12:22.922Z,14.80
2018-07-26T04:14:51.213Z,14.20
2018-07-26T04:17:19.495Z,14.37
2018-07-26T04:19:47.741Z,15.20
2018-07-26T04:22:16.013Z,15.57
2018-07-26T04:24:44.285Z,15.10
2018-07-26T04:27:12.561Z,15.40
2018-07-26T04:29:40.793Z,15.47
2018-07-26T04:32:09.146Z,15.47
2018-07-26T04:34:37.360Z,14.87
2018-07-26T04:37:05.719Z,15.23
2018-07-26T04:39:33.976Z,15.93
2018-07-26T04:42:02.294Z,16.57
2018-07-26T04:44:30.585Z,15.03
2018-07-26T04:46:58.808Z,15.30
2018-07-26T04:49:27.085Z,16.60
2018-07-26T04:51:55.386Z,18.37
2018-07-26T04:54:23.658Z,19.23
2018-07-26T04:56:51.937Z,18.73
2018-07-26T04:59:20.380Z,18.87
2018-07-26T05:01:48.702Z,20.27
2018-07-26T05:04:16.948Z,19.10
2018-07-26T05:06:45.233Z,20.10
2018-07-26T05:09:13.528Z,21.60
2018-07-26T05:11:41.961Z,20.57
2018-07-26T05:14:10.250Z,21.37
2018-07-26T05:16:38.528Z,21.83
2018-07-26T05:19:06.817Z,20.33
2018-07-26T05:21:35.055Z,20.97
2018-07-26T05:24:03.333Z,20.97
2018-07-26T05:26:31.685Z,21.30
2018-07-26T05:29:00.002Z,21.20
2018-07-26T05:31:28.246Z,21.87
2018-07-26T05:33:56.680Z,21.97
2018-07-26T05:36:25.570Z,21.23
2018-07-26T05:38:53.848Z,19.67
2018-07-26T05:41:22.100Z,21.13
2018-07-26T05:43:50.372Z,19.83
2018-07-26T05:46:18.609Z,20.33
2018-07-26T05:48:46.899Z,19.83
2018-07-26T05:51:15.201Z,20.27
2018-07-26T05:53:43.406Z,19.30
2018-07-26T05:56:11.664Z,19.47
2018-07-26T05:58:39.925Z,19.13
2018-07-26T06:01:08.162Z,19.67
2018-07-26T06:03:36.434Z,16.80
2018-07-26T06:06:05.019Z,17.90
2018-07-26T06:08:33.296Z,15.57
2018-07-26T06:11:01.573Z,15.37
2018-07-26T06:13:29.916Z,16.17
2018-07-26T06:15:58.408Z,14.90
2018-07-26T06:18:26.726Z,15.10
2018-07-26T06:20:54.981Z,13.87
2018-07-26T06:23:23.233Z,14.20
2018-07-26T06:25:51.526Z,13.83
2018-07-26T06:28:19.803Z,14.27
2018-07-26T06:30:48.037Z,13.20
2018-07-26T06:33:16.315Z,11.57
2018-07-26T06:35:44.537Z,11.23
2018-07-26T06:38:12.814Z,11.83
2018-07-26T06:40:41.057Z,10.90
2018-07-26T06:43:09.336Z,9.03
2018-07-26T06:45:37.611Z,8.17
2018-07-26T06:48:06.476Z,8.40
2018-07-26T06:50:34.733Z,8.00
2018-07-26T06:53:03.168Z,7.47
2018-07-26T06:55:31.528Z,7.80
2018-07-26T06:58:00.113Z,7.47
2018-07-26T07:00:28.383Z,7.70
2018-07-26T07:02:56.697Z,7.87
2018-07-26T07:05:24.948Z,6.50
2018-07-26T07:07:53.174Z,7.40
2018-07-26T07:10:21.464Z,6.60
2018-07-26T07:12:49.712Z,6.40
2018-07-26T07:15:18.966Z,6.53
2018-07-26T07:17:47.305Z,6.30
2018-07-26T07:20:15.622Z,6.60
2018-07-26T07:22:43.884Z,6.50
2018-07-26T07:25:12.176Z,6.57
2018-07-26T07:27:40.439Z,5.03
2018-07-26T07:30:10.702Z,5.63
2018-07-26T07:32:39.238Z,4.80
2018-07-26T07:35:07.501Z,4.87
2018-07-26T07:37:35.765Z,5.57
2018-07-26T07:40:04.521Z,5.23
2018-07-26T07:42:32.822Z,5.60
2018-07-26T07:45:01.138Z,4.00
2018-07-26T07:47:29.433Z,4.62
2018-07-26T07:49:57.648Z,4.20
2018-07-26T07:52:25.919Z,5.00
2018-07-26T07:54:54.177Z,4.62
2018-07-26T07:57:22.481Z,3.20
2018-07-26T07:59:50.744Z,3.35
2018-07-26T08:02:18.989Z,3.02
2018-07-26T08:04:47.317Z,2.87
2018-07-26T08:07:15.576Z,2.60
2018-07-26T08:09:43.837Z,2.85
2018-07-26T08:12:12.121Z,2.80
2018-07-26T08:14:40.410Z,2.95
2018-07-26T08:17:08.739Z,3.30
2018-07-26T08:19:36.988Z,3.30
2018-07-26T08:22:05.068Z,3.37
2018-07-26T08:24:33.032Z,2.90
2018-07-26T08:27:01.302Z,2.87
2018-07-26T08:29:29.592Z,3.42
2018-07-26T08:31:57.801Z,2.45
2018-07-26T08:34:26.180Z,2.58
2018-07-26T08:36:54.438Z,2.90
2018-07-26T08:39:22.761Z,2.40
2018-07-26T08:41:51.220Z,2.33
2018-07-26T08:44:19.508Z,2.70
2018-07-26T08:46:47.757Z,2.52
2018-07-26T08:49:16.075Z,2.55
2018-07-26T08:51:44.366Z,4.08
2018-07-26T08:54:12.816Z,5.62
2018-07-26T08:56:41.012Z,2.98
2018-07-26T08:59:09.253Z,3.10
2018-07-26T09:01:37.661Z,3.42
2018-07-26T09:04:06.232Z,3.20
2018-07-26T09:06:34.510Z,3.10
2018-07-26T09:09:02.854Z,3.00
2018-07-26T09:11:31.372Z,2.62
2018-07-26T09:13:59.590Z,2.70
2018-07-26T09:16:27.869Z,2.70
2018-07-26T09:18:56.125Z,3.00
2018-07-26T09:21:24.443Z,2.83
2018-07-26T09:23:52.700Z,3.55
2018-07-26T09:26:21.034Z,2.90
2018-07-26T09:28:49.207Z,2.83
2018-07-26T09:31:17.529Z,2.85
2018-07-26T09:33:45.784Z,2.85
2018-07-26T09:36:14.028Z,2.70
2018-07-26T09:38:42.295Z,2.60
2018-07-26T09:41:13.207Z,2.65
2018-07-26T09:43:41.626Z,2.75
2018-07-26T09:46:09.916Z,2.80
2018-07-26T09:48:37.871Z,2.70
2018-07-26T09:51:06.235Z,2.47
2018-07-26T09:53:34.509Z,2.90
2018-07-26T09:56:02.749Z,2.87
2018-07-26T09:58:31.025Z,2.67
2018-07-26T10:01:04.738Z,2.60
2018-07-26T10:03:33.061Z,2.70
2018-07-26T10:06:01.321Z,3.30
2018-07-26T10:08:29.761Z,2.98
2018-07-26T10:10:57.989Z,2.70
2018-07-26T10:13:26.287Z,3.10
2018-07-26T10:15:54.566Z,2.95
2018-07-26T10:18:22.901Z,3.20
2018-07-26T10:20:51.150Z,2.55
2018-07-26T10:23:19.578Z,3.00
2018-07-26T10:25:47.860Z,3.10
2018-07-26T10:28:16.133Z,2.80
2018-07-26T10:30:44.410Z,2.90
2018-07-26T10:33:12.703Z,3.17
2018-07-26T10:35:40.962Z,3.17
2018-07-26T10:38:09.242Z,3.40
2018-07-26T10:40:37.542Z,2.92
2018-07-26T10:43:05.777Z,3.10
2018-07-26T10:45:34.077Z,3.00
2018-07-26T10:48:02.335Z,2.98
2018-07-26T10:50:30.557Z,2.90
2018-07-26T10:52:58.818Z,2.98
2018-07-26T10:55:27.068Z,3.25
2018-07-26T10:57:55.050Z,3.25
2018-07-26T11:00:23.420Z,3.30
2018-07-26T11:02:51.616Z,2.95
2018-07-26T11:05:19.845Z,3.37
2018-07-26T11:07:48.113Z,3.65
2018-07-26T11:10:16.458Z,3.58
2018-07-26T11:12:44.740Z,2.90
2018-07-26T11:15:27.052Z,3.12
2018-07-26T11:17:55.321Z,3.20
2018-07-26T11:20:23.596Z,2.85
2018-07-26T11:22:51.848Z,2.67
2018-07-26T11:25:20.108Z,4.03
2018-07-26T11:27:48.421Z,3.08
2018-07-26T11:30:16.698Z,2.98
2018-07-26T11:32:45.142Z,2.80
2018-07-26T11:35:13.409Z,3.00
2018-07-26T11:37:41.908Z,2.90
2018-07-26T11:40:10.215Z,3.15
2018-07-26T11:42:38.464Z,2.75
2018-07-26T11:45:07.569Z,3.17
2018-07-26T11:47:36.041Z,2.80
2018-07-26T11:50:04.695Z,2.80
2018-07-26T11:52:32.996Z,3.22
2018-07-26T11:55:01.289Z,3.10
2018-07-26T11:57:29.589Z,3.37
2018-07-26T11:59:57.817Z,3.02
2018-07-26T12:02:26.167Z,3.25
2018-07-26T12:04:54.410Z,3.37
2018-07-26T12:07:22.675Z,3.20
2018-07-26T12:09:50.915Z,3.10
2018-07-26T12:12:19.161Z,3.25
2018-07-26T12:14:47.514Z,3.20
2018-07-26T12:17:15.782Z,3.10
2018-07-26T12:19:44.101Z,3.52
2018-07-26T12:22:12.427Z,3.15
2018-07-26T12:24:40.769Z,3.50
2018-07-26T12:27:09.098Z,3.80
2018-07-26T12:29:38.413Z,3.30
2018-07-26T12:32:06.683Z,3.27
2018-07-26T12:34:34.945Z,3.17
2018-07-26T12:37:03.222Z,3.27
2018-07-26T12:39:32.338Z,3.45
2018-07-26T12:42:01.723Z,3.50
2018-07-26T12:44:30.178Z,3.58
2018-07-26T12:46:58.169Z,3.40
2018-07-26T12:49:26.693Z,3.33
2018-07-26T12:51:55.037Z,3.65
2018-07-26T12:54:23.270Z,3.80
2018-07-26T12:56:52.697Z,3.77
2018-07-26T12:59:20.977Z,3.77
2018-07-26T13:01:49.505Z,3.67
2018-07-26T13:04:17.704Z,5.37
2018-07-26T13:06:45.933Z,5.53
2018-07-26T13:09:14.181Z,4.10
2018-07-26T13:11:42.481Z,4.62
2018-07-26T13:14:10.757Z,4.00
2018-07-26T13:16:39.025Z,6.03
2018-07-26T13:19:07.320Z,4.92
2018-07-26T13:21:35.642Z,3.85
2018-07-26T13:24:03.881Z,4.10
2018-07-26T13:26:32.133Z,3.80
2018-07-26T13:29:00.512Z,3.33
2018-07-26T13:31:28.801Z,4.50
2018-07-26T13:33:57.073Z,3.70
2018-07-26T13:36:25.333Z,3.70
2018-07-26T13:38:53.809Z,3.60
2018-07-26T13:41:22.060Z,4.05
2018-07-26T13:43:50.364Z,3.77
2018-07-26T13:46:18.667Z,4.08
2018-07-26T13:48:46.896Z,4.62
2018-07-26T13:51:15.129Z,4.28
2018-07-26T13:53:43.389Z,3.55
2018-07-26T13:56:11.668Z,3.55
2018-07-26T13:58:40.000Z,4.00
2018-07-26T14:01:08.263Z,3.42
2018-07-26T14:03:36.506Z,4.03
2018-07-26T14:06:04.773Z,3.83
2018-07-26T14:08:33.025Z,4.35
2018-07-26T14:11:01.262Z,4.72
2018-07-26T14:13:29.541Z,4.40
2018-07-26T14:15:57.881Z,4.80
2018-07-26T14:18:26.209Z,4.53
2018-07-26T14:20:54.433Z,4.22
2018-07-26T14:23:28.001Z,4.20
2018-07-26T14:25:56.301Z,4.40
2018-07-26T14:28:24.538Z,4.58
2018-07-26T14:30:52.918Z,4.55
2018-07-26T14:33:21.144Z,4.33
2018-07-26T14:35:49.394Z,5.35
2018-07-26T14:38:17.666Z,5.30
2018-07-26T14:40:45.909Z,5.08
2018-07-26T14:43:14.194Z,4.90
2018-07-26T14:45:42.445Z,5.62
2018-07-26T14:48:10.684Z,4.30
2018-07-26T14:50:38.944Z,4.40
2018-07-26T14:53:07.522Z,4.60
2018-07-26T14:55:35.900Z,4.87
2018-07-26T14:58:04.166Z,4.45
2018-07-26T15:00:32.445Z,4.53
2018-07-26T15:03:00.718Z,4.92
2018-07-26T15:05:29.313Z,4.87
2018-07-26T15:07:57.777Z,4.85
2018-07-26T15:10:25.949Z,4.25
2018-07-26T15:12:54.225Z,4.60
2018-07-26T15:15:23.306Z,4.67
2018-07-26T15:17:51.572Z,5.25
2018-07-26T15:20:19.871Z,5.90
2018-07-26T15:22:48.352Z,5.00
2018-07-26T15:25:21.669Z,5.00
2018-07-26T15:27:49.994Z,4.70
2018-07-26T15:30:18.336Z,4.70
2018-07-26T15:32:46.665Z,4.70
2018-07-26T15:35:14.884Z,4.70
2018-07-26T15:37:43.163Z,4.90
2018-07-26T15:40:11.453Z,5.10
2018-07-26T15:42:39.545Z,4.70
2018-07-26T15:45:07.964Z,4.87
2018-07-26T15:47:36.244Z,4.95
2018-07-26T15:50:04.422Z,5.05
2018-07-26T15:52:33.032Z,5.42
2018-07-26T15:55:01.490Z,5.45
2018-07-26T15:57:29.737Z,5.00
2018-07-26T15:59:58.292Z,5.35
2018-07-26T16:02:27.057Z,4.80
2018-07-26T16:04:56.377Z,5.17
2018-07-26T16:07:24.701Z,5.22
2018-07-26T16:09:52.993Z,6.33
2018-07-26T16:12:21.301Z,5.97
2018-07-26T16:14:49.548Z,4.72
2018-07-26T16:17:17.849Z,5.10
2018-07-26T16:19:46.101Z,4.97
2018-07-26T16:22:14.158Z,5.22
2018-07-26T16:24:42.401Z,5.03
2018-07-26T16:27:10.639Z,5.28
2018-07-26T16:29:38.921Z,5.33
2018-07-26T16:32:07.204Z,5.33
2018-07-26T16:34:35.473Z,5.55
2018-07-26T16:37:03.737Z,5.05
2018-07-26T16:39:32.030Z,4.95
2018-07-26T16:42:00.281Z,4.78
2018-07-26T16:44:28.557Z,5.03
2018-07-26T16:46:57.285Z,5.00
2018-07-26T16:49:25.560Z,4.78
2018-07-26T16:51:53.821Z,5.10
2018-07-26T16:54:22.067Z,4.92
2018-07-26T16:56:51.364Z,4.90
2018-07-26T16:59:19.647Z,4.80
2018-07-26T17:01:48.275Z,5.05
2018-07-26T17:04:16.538Z,4.75
2018-07-26T17:06:44.764Z,5.58
2018-07-26T17:09:12.989Z,4.90
2018-07-26T17:11:41.268Z,5.08
2018-07-26T17:14:09.517Z,4.90
2018-07-26T17:16:37.782Z,4.72
2018-07-26T17:19:06.052Z,4.95
2018-07-26T17:21:34.297Z,5.00
2018-07-26T17:24:02.544Z,4.87
2018-07-26T17:26:30.866Z,4.90
2018-07-26T17:28:59.269Z,4.95
2018-07-26T17:31:27.521Z,5.10
2018-07-26T17:33:55.762Z,5.22
2018-07-26T17:36:24.045Z,6.47
2018-07-26T17:38:52.287Z,5.15
2018-07-26T17:41:20.545Z,4.72
2018-07-26T17:43:48.817Z,5.72
2018-07-26T17:46:17.202Z,6.33
2018-07-26T17:48:45.445Z,4.97
2018-07-26T17:51:13.893Z,5.45
2018-07-26T17:53:42.157Z,6.15
2018-07-26T17:56:10.434Z,5.15
2018-07-26T17:58:38.428Z,4.92
2018-07-26T18:01:06.761Z,5.00
2018-07-26T18:03:34.990Z,4.90
2018-07-26T18:06:03.237Z,5.17
2018-07-26T18:08:31.473Z,5.15
2018-07-26T18:10:59.729Z,5.00
2018-07-26T18:13:27.994Z,5.47
2018-07-26T18:15:56.268Z,4.87
2018-07-26T18:18:24.524Z,5.25
2018-07-26T18:20:52.767Z,5.50
2018-07-26T18:23:21.052Z,5.08
2018-07-26T18:25:49.353Z,5.47
2018-07-26T18:28:17.610Z,4.97
2018-07-26T18:30:45.835Z,6.08
2018-07-26T18:33:14.075Z,5.10
2018-07-26T18:35:42.561Z,5.10
2018-07-26T18:38:10.928Z,5.00
2018-07-26T18:40:39.131Z,5.40
2018-07-26T18:43:07.666Z,5.50
2018-07-26T18:45:35.912Z,5.60
2018-07-26T18:48:04.358Z,5.37
2018-07-26T18:50:33.428Z,5.70
2018-07-26T18:53:01.697Z,5.78
2018-07-26T18:55:30.019Z,8.10
2018-07-26T18:57:58.244Z,6.10
2018-07-26T19:00:26.457Z,6.35
2018-07-26T19:02:54.772Z,5.58
2018-07-26T19:05:23.032Z,5.97
2018-07-26T19:07:51.294Z,6.22
2018-07-26T19:10:19.530Z,5.78
2018-07-26T19:12:47.906Z,5.80
2018-07-26T19:15:16.540Z,6.08
2018-07-26T19:17:44.788Z,5.90
2018-07-26T19:20:13.061Z,5.42
2018-07-26T19:22:41.320Z,6.15
2018-07-26T19:25:10.537Z,6.30
2018-07-26T19:27:38.792Z,5.83
2018-07-26T19:30:09.225Z,6.62
2018-07-26T19:32:37.558Z,6.42
2018-07-26T19:35:06.145Z,8.10
2018-07-26T19:37:34.791Z,6.28
2018-07-26T19:40:03.069Z,6.10
2018-07-26T19:42:31.322Z,6.65
2018-07-26T19:44:59.611Z,5.62
2018-07-26T19:47:27.910Z,5.40
2018-07-26T19:49:56.185Z,6.37
2018-07-26T19:52:24.460Z,5.80
2018-07-26T19:54:53.354Z,5.58
2018-07-26T19:57:21.573Z,6.40
2018-07-26T19:59:49.886Z,5.43
2018-07-26T20:02:18.389Z,5.55
2018-07-26T20:04:46.667Z,5.78
2018-07-26T20:07:14.928Z,5.70
2018-07-26T20:09:43.298Z,5.22
2018-07-26T20:12:11.526Z,5.57
2018-07-26T20:14:39.791Z,6.20
2018-07-26T20:17:08.049Z,6.10
2018-07-26T20:19:36.410Z,5.42
2018-07-26T20:22:04.955Z,5.87
2018-07-26T20:24:33.260Z,6.10
2018-07-26T20:27:02.350Z,5.73
2018-07-26T20:29:30.750Z,6.13
2018-07-26T20:31:59.223Z,5.90
2018-07-26T20:34:28.557Z,5.83
2018-07-26T20:36:56.821Z,5.90
2018-07-26T20:39:25.350Z,5.50
2018-07-26T20:41:53.628Z,6.00
2018-07-26T20:44:21.961Z,5.77
2018-07-26T20:46:50.269Z,6.23
2018-07-26T20:49:18.529Z,5.97
2018-07-26T20:51:46.789Z,6.10
2018-07-26T20:54:15.235Z,6.07
2018-07-26T20:56:43.659Z,5.93
2018-07-26T20:59:11.940Z,5.77
2018-07-26T21:01:40.182Z,6.20
2018-07-26T21:04:08.478Z,6.47
2018-07-26T21:06:36.750Z,6.30
2018-07-26T21:09:08.455Z,6.30
2018-07-26T21:11:36.853Z,6.07
2018-07-26T21:14:05.186Z,6.20
2018-07-26T21:16:33.682Z,6.17
2018-07-26T21:19:02.289Z,6.60
2018-07-26T21:21:30.697Z,6.03
2018-07-26T21:23:59.099Z,6.57
2018-07-26T21:26:27.461Z,6.40
2018-07-26T21:28:55.778Z,6.17
2018-07-26T21:31:24.025Z,6.77
2018-07-26T21:33:52.320Z,6.60
2018-07-26T21:36:21.081Z,6.70
2018-07-26T21:38:49.353Z,6.50
2018-07-26T21:41:18.136Z,5.93
2018-07-26T21:43:46.619Z,7.20
2018-07-26T21:46:15.494Z,6.93
2018-07-26T21:48:43.717Z,7.43
2018-07-26T21:51:12.085Z,7.23
2018-07-26T21:53:40.388Z,7.07
2018-07-26T21:56:08.817Z,7.73
2018-07-26T21:58:37.187Z,7.13
2018-07-26T22:01:05.585Z,7.40
2018-07-26T22:03:33.892Z,7.47
2018-07-26T22:06:02.246Z,8.03
2018-07-26T22:08:30.576Z,6.80
2018-07-26T22:10:58.821Z,7.03
2018-07-26T22:13:27.069Z,7.63
2018-07-26T22:15:55.338Z,7.83
2018-07-26T22:18:23.909Z,6.77
2018-07-26T22:20:52.337Z,7.47
2018-07-26T22:23:20.678Z,7.57
2018-07-26T22:25:49.950Z,8.07
2018-07-26T22:28:18.764Z,7.67
2018-07-26T22:30:47.577Z,8.10
2018-07-26T22:33:16.069Z,7.87
2018-07-26T22:35:44.411Z,8.20
2018-07-26T22:38:13.301Z,7.60
2018-07-26T22:40:41.598Z,7.23
2018-07-26T22:43:09.833Z,7.40
2018-07-26T22:45:38.400Z,7.67
2018-07-26T22:48:06.953Z,8.50
2018-07-26T22:50:35.001Z,8.20
2018-07-26T22:53:03.269Z,8.43
2018-07-26T22:55:31.553Z,8.60
2018-07-26T22:57:59.984Z,8.00
2018-07-26T23:00:28.710Z,8.50
2018-07-26T23:02:57.041Z,7.70
2018-07-26T23:05:25.337Z,8.40
2018-07-26T23:07:53.777Z,8.90
2018-07-26T23:10:22.057Z,8.77
2018-07-26T23:12:50.344Z,8.73
2018-07-26T23:15:18.640Z,8.80
2018-07-26T23:17:46.976Z,8.87
2018-07-26T23:20:15.283Z,9.03
2018-07-26T23:22:43.510Z,9.40
2018-07-26T23:25:11.831Z,9.67
2018-07-26T23:27:40.095Z,9.10
2018-07-26T23:30:11.234Z,9.20
2018-07-26T23:32:39.524Z,8.53
2018-07-26T23:35:08.122Z,9.50
2018-07-26T23:37:36.557Z,9.10
2018-07-26T23:40:06.052Z,8.70
2018-07-26T23:42:34.294Z,9.17
2018-07-26T23:45:02.601Z,9.43
2018-07-26T23:47:30.874Z,9.60
2018-07-26T23:49:59.116Z,9.87
2018-07-26T23:52:27.441Z,9.63
2018-07-26T23:54:55.829Z,9.70
2018-07-26T23:57:24.137Z,9.80
2018-07-26T23:59:52.372Z,9.60
